KBXA/BXA METAR and TAF weather

Enter ICAO airport designator
Station Type Date Time Source
KBXA METAR 2021/03/02 13:15 UTC NOAA

KBXA 021315Z AUTO 06010KT 7SM BKN007 BKN011 OVC041 08/06 A3017 RMK AO2 P0002 T00750058


Station Type Date Time Source
KBXA Decoded METAR 2021/03/02 13:15 UTC NOAA

Bogalusa, George R Carr Memorial Air Field, LA, United States (KBXA) 30-48-49N 089-51-53W
Mar 02, 2021 - 08:15 AM EST / 2021.03.02 1315 UTC
Wind: from the ENE (060 degrees) at 12 MPH (10 KT):0
Visibility: 7 mile(s):0
Sky conditions: overcast
Precipitation last hour: 0.02 inches
Temperature: 45.5 F (7.5 C)
Dew Point: 42.4 F (5.8 C)
Relative Humidity: 88%
Pressure (altimeter): 30.17 in. Hg (1021 hPa)
ob: KBXA 021315Z AUTO 06010KT 7SM BKN007 BKN011 OVC041 08/06 A3017 RMK AO2 P0002 T00750058
cycle: 13

Station Type Date Time Source
KBXA TAF UTC NOAA

Error!

Example: see airport list